createdAt,value
2022-10-26T00:01:07.755Z,8.48
2022-10-26T00:03:38.763Z,8.32
2022-10-26T00:06:08.398Z,9.07
2022-10-26T00:08:36.043Z,9.77
2022-10-26T00:11:03.654Z,8.38
2022-10-26T00:13:30.785Z,9.60
2022-10-26T00:15:57.776Z,9.93
2022-10-26T00:18:25.388Z,8.75
2022-10-26T00:20:52.404Z,8.98
2022-10-26T00:23:19.785Z,9.43
2022-10-26T00:25:54.686Z,10.15
2022-10-26T00:28:22.022Z,10.02
2022-10-26T00:30:48.912Z,10.38
2022-10-26T00:33:16.098Z,10.27
2022-10-26T00:35:46.490Z,10.10
2022-10-26T00:38:13.798Z,10.18
2022-10-26T00:40:40.927Z,9.57
2022-10-26T00:43:38.785Z,10.73
2022-10-26T00:46:09.262Z,11.00
2022-10-26T00:48:41.143Z,10.68
2022-10-26T00:51:19.046Z,11.13
2022-10-26T00:53:47.183Z,10.32
2022-10-26T00:56:15.804Z,11.25
2022-10-26T00:58:43.617Z,11.07
2022-10-26T01:01:11.553Z,11.57
2022-10-26T01:03:39.562Z,12.75
2022-10-26T01:06:07.499Z,12.10
2022-10-26T01:08:34.979Z,11.43
2022-10-26T01:11:02.729Z,12.07
2022-10-26T01:13:33.810Z,12.98
2022-10-26T01:16:16.536Z,11.48
2022-10-26T01:18:55.229Z,11.25
2022-10-26T01:21:59.679Z,10.70
2022-10-26T01:24:58.948Z,12.02
2022-10-26T01:27:33.782Z,10.80
2022-10-26T01:30:25.338Z,10.27
2022-10-26T01:33:21.689Z,9.68
2022-10-26T01:36:09.742Z,9.80
2022-10-26T01:38:59.914Z,10.07
2022-10-26T01:41:32.813Z,10.13
2022-10-26T01:44:16.853Z,10.43
2022-10-26T01:46:46.765Z,11.15
2022-10-26T01:49:17.079Z,11.40
2022-10-26T01:51:47.209Z,9.30
2022-10-26T01:54:14.095Z,11.10
2022-10-26T01:56:44.972Z,10.95
2022-10-26T01:59:32.015Z,10.88
2022-10-26T02:02:30.144Z,10.90
2022-10-26T02:05:15.220Z,11.90
2022-10-26T02:07:57.681Z,10.98
2022-10-26T02:10:48.046Z,10.63
2022-10-26T02:13:30.290Z,9.23
2022-10-26T02:16:10.644Z,9.57
2022-10-26T02:18:55.516Z,10.23
2022-10-26T02:21:27.813Z,10.25
2022-10-26T02:23:57.262Z,10.85
2022-10-26T02:26:26.543Z,11.93
2022-10-26T02:28:57.775Z,11.02
2022-10-26T02:31:26.271Z,11.55
2022-10-26T02:33:57.165Z,9.75
2022-10-26T02:36:28.372Z,11.75
2022-10-26T02:38:58.752Z,11.60
2022-10-26T02:41:28.470Z,11.00
2022-10-26T02:44:26.725Z,10.43
2022-10-26T02:46:54.406Z,11.52
2022-10-26T02:49:21.972Z,11.68
2022-10-26T02:52:06.388Z,12.27
2022-10-26T02:54:36.395Z,12.18
2022-10-26T02:57:39.909Z,12.43
2022-10-26T03:02:37.553Z,12.82
2022-10-26T03:05:19.591Z,13.25
2022-10-26T03:07:46.451Z,11.65
2022-10-26T03:10:13.796Z,14.05
2022-10-26T03:12:40.702Z,13.18
2022-10-26T03:15:08.415Z,13.10
2022-10-26T03:17:35.350Z,13.80
2022-10-26T03:20:03.539Z,13.93
2022-10-26T03:22:30.681Z,13.90
2022-10-26T03:24:57.779Z,13.20
2022-10-26T03:27:24.732Z,13.25
2022-10-26T03:29:51.928Z,13.35
2022-10-26T03:32:18.989Z,14.40
2022-10-26T03:34:46.267Z,13.40
2022-10-26T03:37:13.135Z,12.50
2022-10-26T03:39:40.224Z,13.18
2022-10-26T03:42:07.142Z,13.80
2022-10-26T03:44:34.344Z,12.13
2022-10-26T03:47:01.185Z,12.90
2022-10-26T03:49:28.580Z,11.52
2022-10-26T03:51:55.533Z,11.98
2022-10-26T03:54:22.836Z,11.57
2022-10-26T03:56:52.717Z,12.65
2022-10-26T03:59:22.309Z,12.27
2022-10-26T04:01:52.680Z,13.35
2022-10-26T04:04:22.698Z,11.45
2022-10-26T04:06:49.709Z,11.25
2022-10-26T04:09:17.070Z,11.95
2022-10-26T04:11:44.121Z,11.43
2022-10-26T04:14:11.190Z,11.70
2022-10-26T04:16:38.085Z,12.45
2022-10-26T04:19:05.248Z,10.52
2022-10-26T04:21:33.185Z,11.35
2022-10-26T04:24:00.217Z,11.98
2022-10-26T04:26:27.385Z,9.32
2022-10-26T04:28:54.738Z,12.52
2022-10-26T04:31:21.762Z,10.80
2022-10-26T04:33:48.903Z,10.07
2022-10-26T04:36:15.846Z,11.15
2022-10-26T04:38:42.942Z,10.85
2022-10-26T04:41:09.896Z,12.20
2022-10-26T04:43:37.084Z,11.35
2022-10-26T04:46:04.001Z,12.00
2022-10-26T04:48:31.236Z,12.68
2022-10-26T04:51:01.922Z,11.65
2022-10-26T04:53:29.149Z,11.48
2022-10-26T04:56:00.892Z,12.75
2022-10-26T04:58:29.183Z,13.32
2022-10-26T05:00:56.467Z,13.45
2022-10-26T05:03:23.696Z,12.10
2022-10-26T05:05:50.774Z,11.40
2022-10-26T05:08:17.868Z,12.75
2022-10-26T05:10:51.401Z,11.80
2022-10-26T05:13:18.655Z,12.60
2022-10-26T05:15:45.604Z,11.73
2022-10-26T05:18:12.756Z,10.00
2022-10-26T05:20:39.867Z,11.90
2022-10-26T05:23:10.361Z,10.75
2022-10-26T05:25:38.658Z,10.82
2022-10-26T05:28:09.733Z,10.48
2022-10-26T05:30:36.882Z,9.52
2022-10-26T05:33:04.348Z,9.70
2022-10-26T05:35:32.768Z,10.95
2022-10-26T05:38:00.371Z,11.00
2022-10-26T05:40:27.921Z,10.60
2022-10-26T05:43:00.935Z,10.65
2022-10-26T05:45:28.537Z,10.00
2022-10-26T05:47:58.684Z,9.10
2022-10-26T05:50:28.781Z,10.68
2022-10-26T05:52:55.927Z,9.73
2022-10-26T05:55:23.625Z,11.05
2022-10-26T05:57:51.341Z,10.63
2022-10-26T06:00:22.492Z,11.85
2022-10-26T06:03:07.771Z,10.98
2022-10-26T06:05:54.574Z,10.32
2022-10-26T06:08:23.876Z,11.02
2022-10-26T06:10:51.532Z,15.70
2022-10-26T06:13:18.810Z,14.15
2022-10-26T06:16:12.152Z,11.25
2022-10-26T06:18:51.628Z,10.25
2022-10-26T06:21:39.840Z,9.23
2022-10-26T06:24:18.735Z,9.52
2022-10-26T06:27:15.700Z,9.88
2022-10-26T06:30:00.982Z,8.80
2022-10-26T06:32:29.020Z,10.00
2022-10-26T06:35:25.284Z,9.77
2022-10-26T06:37:54.289Z,10.10
2022-10-26T06:40:23.636Z,10.75
2022-10-26T06:42:51.202Z,9.38
2022-10-26T06:45:18.799Z,10.07
2022-10-26T06:48:12.075Z,8.75
2022-10-26T06:50:42.762Z,11.07
2022-10-26T06:53:35.406Z,9.88
2022-10-26T06:56:02.951Z,12.70
2022-10-26T06:58:34.888Z,12.73
2022-10-26T07:01:02.618Z,9.53
2022-10-26T07:03:29.711Z,10.15
2022-10-26T07:05:56.866Z,10.10
2022-10-26T07:08:24.400Z,8.52
2022-10-26T07:10:51.645Z,8.25
2022-10-26T07:13:18.505Z,9.32
2022-10-26T07:15:45.735Z,9.27
2022-10-26T07:18:12.803Z,9.15
2022-10-26T07:20:41.234Z,8.50
2022-10-26T07:23:12.756Z,10.00
2022-10-26T07:25:40.653Z,9.57
2022-10-26T07:28:10.548Z,9.15
2022-10-26T07:30:40.160Z,10.15
2022-10-26T07:33:09.371Z,10.60
2022-10-26T07:35:36.727Z,9.43
2022-10-26T07:38:04.507Z,11.23
2022-10-26T07:40:32.005Z,10.85
2022-10-26T07:43:00.739Z,12.27
2022-10-26T07:45:29.231Z,11.43
2022-10-26T07:47:56.720Z,10.55
2022-10-26T07:50:24.803Z,9.60
2022-10-26T07:52:52.602Z,9.68
2022-10-26T07:55:20.618Z,11.60
2022-10-26T07:57:49.806Z,13.45
2022-10-26T08:00:22.202Z,13.95
2022-10-26T08:02:49.241Z,14.25
2022-10-26T08:05:16.757Z,9.77
2022-10-26T08:07:44.745Z,9.25
2022-10-26T08:10:13.140Z,8.57
2022-10-26T08:12:40.757Z,8.20
2022-10-26T08:15:08.581Z,7.88
2022-10-26T08:17:35.781Z,7.63
2022-10-26T08:20:03.283Z,8.02
2022-10-26T08:22:30.883Z,8.57
2022-10-26T08:24:58.345Z,7.85
2022-10-26T08:27:25.336Z,8.52
2022-10-26T08:29:52.847Z,9.18
2022-10-26T08:32:19.916Z,9.10
2022-10-26T08:34:46.999Z,9.35
2022-10-26T08:37:13.980Z,10.02
2022-10-26T08:39:41.052Z,9.00
2022-10-26T08:42:17.084Z,8.85
2022-10-26T08:44:47.675Z,9.98
2022-10-26T08:47:29.341Z,9.82
2022-10-26T08:50:09.728Z,10.00
2022-10-26T08:52:43.919Z,10.95
2022-10-26T08:55:20.567Z,11.07
2022-10-26T08:57:50.181Z,11.93
2022-10-26T09:00:22.309Z,11.82
2022-10-26T09:05:45.717Z,10.15
2022-10-26T09:08:48.215Z,11.40
2022-10-26T09:11:51.385Z,12.48
2022-10-26T09:14:28.536Z,11.18
2022-10-26T09:17:23.246Z,10.80
2022-10-26T09:20:02.850Z,9.38
2022-10-26T09:22:50.980Z,12.18
2022-10-26T09:25:22.316Z,11.77
2022-10-26T09:27:58.210Z,11.23
2022-10-26T09:30:25.206Z,12.30
2022-10-26T09:32:58.153Z,11.20
2022-10-26T09:36:03.997Z,11.32
2022-10-26T09:38:34.533Z,10.30
2022-10-26T09:41:06.519Z,11.13
2022-10-26T09:43:50.653Z,11.05
2022-10-26T09:46:23.118Z,12.38
2022-10-26T09:48:58.535Z,11.93
2022-10-26T09:51:27.280Z,11.82
2022-10-26T09:53:57.436Z,11.93
2022-10-26T09:56:26.168Z,12.63
2022-10-26T09:58:59.709Z,12.43
2022-10-26T10:01:36.902Z,11.98
2022-10-26T10:04:12.871Z,12.38
2022-10-26T10:09:15.014Z,11.93
2022-10-26T10:11:58.044Z,12.20
2022-10-26T10:14:39.738Z,11.38
2022-10-26T10:19:44.374Z,11.00
2022-10-26T10:22:23.569Z,12.07
2022-10-26T10:24:58.105Z,12.30
2022-10-26T10:27:26.160Z,11.25
2022-10-26T10:30:01.633Z,11.60
2022-10-26T10:32:35.765Z,10.38
2022-10-26T10:35:24.942Z,10.70
2022-10-26T10:37:52.600Z,11.80
2022-10-26T10:40:23.244Z,11.93
2022-10-26T10:42:53.157Z,12.05
2022-10-26T10:45:26.131Z,11.15
2022-10-26T10:48:05.835Z,11.02
2022-10-26T10:50:36.467Z,12.05
2022-10-26T10:53:16.809Z,10.88
2022-10-26T10:55:53.092Z,11.75
2022-10-26T10:59:01.344Z,13.13
2022-10-26T11:01:40.936Z,12.60
2022-10-26T11:06:49.759Z,11.32
2022-10-26T11:09:21.823Z,11.50
2022-10-26T11:11:53.513Z,11.17
2022-10-26T11:14:31.816Z,11.10
2022-10-26T11:17:32.573Z,11.80
2022-10-26T11:20:04.005Z,10.48
2022-10-26T11:22:41.331Z,10.57
2022-10-26T11:25:24.407Z,11.05
2022-10-26T11:28:05.051Z,10.82
2022-10-26T11:30:36.448Z,11.23
2022-10-26T11:33:06.819Z,11.35
2022-10-26T11:35:50.866Z,11.32
2022-10-26T11:38:38.745Z,11.75
2022-10-26T11:41:40.230Z,12.23
2022-10-26T11:44:21.888Z,11.32
2022-10-26T11:46:55.473Z,10.82
2022-10-26T11:49:32.312Z,11.45
2022-10-26T11:52:28.272Z,11.00
2022-10-26T11:55:04.715Z,10.35
2022-10-26T11:57:37.083Z,10.52
2022-10-26T12:00:20.681Z,10.38
2022-10-26T12:03:15.261Z,11.10
2022-10-26T12:05:50.606Z,9.77
2022-10-26T12:08:37.646Z,10.98
2022-10-26T12:11:21.013Z,10.35
2022-10-26T12:13:54.899Z,12.18
2022-10-26T12:16:33.686Z,12.30
2022-10-26T12:19:06.674Z,10.85
2022-10-26T12:21:34.497Z,12.00
2022-10-26T12:24:22.723Z,12.40
2022-10-26T12:26:53.668Z,12.18
2022-10-26T12:29:23.559Z,11.32
2022-10-26T12:31:51.007Z,11.07
2022-10-26T12:34:30.176Z,12.27
2022-10-26T12:36:57.371Z,12.43
2022-10-26T12:39:38.386Z,11.73
2022-10-26T12:42:05.761Z,12.45
2022-10-26T12:44:38.707Z,11.73
2022-10-26T12:49:58.714Z,11.02
2022-10-26T12:52:48.221Z,11.90
2022-10-26T12:55:42.153Z,11.85
2022-10-26T12:58:17.974Z,11.52
2022-10-26T13:01:08.881Z,11.48
2022-10-26T13:04:14.504Z,12.80
2022-10-26T13:07:05.728Z,12.35
2022-10-26T13:09:33.299Z,11.88
2022-10-26T13:12:02.939Z,11.45
2022-10-26T13:14:38.768Z,12.65
2022-10-26T13:17:07.304Z,11.98
2022-10-26T13:19:47.162Z,12.48
2022-10-26T13:22:22.003Z,11.63
2022-10-26T13:24:56.368Z,12.43
2022-10-26T13:27:39.394Z,12.88
2022-10-26T13:30:09.761Z,11.60
2022-10-26T13:32:42.743Z,11.95
2022-10-26T13:35:14.653Z,12.15
2022-10-26T13:37:47.062Z,12.93
2022-10-26T13:40:18.916Z,12.23
2022-10-26T13:42:55.943Z,14.38
2022-10-26T13:45:43.554Z,13.68
2022-10-26T13:48:28.214Z,13.10
2022-10-26T13:53:41.241Z,12.35
2022-10-26T13:56:32.411Z,11.93
2022-10-26T13:59:05.877Z,11.45
2022-10-26T14:01:33.343Z,12.38
2022-10-26T14:04:14.112Z,12.48
2022-10-26T14:06:43.220Z,11.45
2022-10-26T14:09:15.655Z,13.45
2022-10-26T14:12:01.886Z,10.88
2022-10-26T14:14:33.051Z,11.05
2022-10-26T14:17:01.005Z,12.27
2022-10-26T14:19:34.342Z,12.18
2022-10-26T14:22:02.427Z,11.07
2022-10-26T14:24:46.228Z,10.38
2022-10-26T14:27:18.994Z,12.30
2022-10-26T14:29:58.361Z,11.47
2022-10-26T14:32:33.934Z,11.05
2022-10-26T14:35:01.055Z,13.45
2022-10-26T14:37:43.298Z,13.63
2022-10-26T14:40:17.782Z,12.98
2022-10-26T14:42:50.618Z,20.17
2022-10-26T14:45:36.402Z,27.85
2022-10-26T14:48:30.148Z,16.98
2022-10-26T14:51:17.017Z,17.30
2022-10-26T14:53:52.586Z,15.32
2022-10-26T14:56:34.538Z,14.15
2022-10-26T14:59:32.332Z,13.27
2022-10-26T15:02:11.176Z,15.07
2022-10-26T15:04:41.264Z,13.25
2022-10-26T15:07:20.591Z,12.80
2022-10-26T15:09:50.049Z,16.33
2022-10-26T15:12:23.076Z,15.32
2022-10-26T15:14:51.505Z,30.98
2022-10-26T15:17:34.269Z,26.15
2022-10-26T15:20:06.981Z,26.98
2022-10-26T15:22:34.574Z,27.27
2022-10-26T15:25:05.592Z,26.42
2022-10-26T15:27:32.814Z,22.48
2022-10-26T15:30:30.155Z,33.58
2022-10-26T15:32:57.172Z,41.08
2022-10-26T15:35:26.433Z,28.42
2022-10-26T15:37:55.635Z,22.63
2022-10-26T15:42:54.588Z,14.77
2022-10-26T15:45:23.084Z,15.25
2022-10-26T15:47:55.758Z,16.48
2022-10-26T15:50:26.107Z,21.13
2022-10-26T15:53:03.086Z,22.05
2022-10-26T15:55:30.976Z,16.10
2022-10-26T15:57:57.948Z,12.00
2022-10-26T16:00:25.073Z,11.45
2022-10-26T16:02:52.170Z,12.50
2022-10-26T16:05:19.343Z,16.13
2022-10-26T16:07:48.104Z,14.38
2022-10-26T16:10:23.639Z,14.63
2022-10-26T16:12:51.237Z,13.93
2022-10-26T16:15:23.772Z,15.32
2022-10-26T16:17:51.980Z,20.15
2022-10-26T16:20:24.320Z,27.25
2022-10-26T16:22:53.277Z,21.70
2022-10-26T16:25:23.794Z,20.02
2022-10-26T16:27:51.749Z,16.20
2022-10-26T16:30:20.080Z,17.65
2022-10-26T16:32:47.601Z,16.15
2022-10-26T16:35:15.111Z,16.80
2022-10-26T16:37:42.795Z,19.63
2022-10-26T16:40:10.408Z,18.20
2022-10-26T16:42:37.349Z,18.00
2022-10-26T16:45:04.942Z,21.27
2022-10-26T16:47:36.494Z,18.38
2022-10-26T16:50:04.495Z,17.80
2022-10-26T16:52:33.552Z,17.02
2022-10-26T16:55:00.654Z,14.13
2022-10-26T16:57:28.017Z,12.65
2022-10-26T16:59:55.242Z,13.02
2022-10-26T17:02:22.478Z,21.02
2022-10-26T17:04:49.880Z,21.17
2022-10-26T17:07:16.834Z,23.00
2022-10-26T17:09:43.869Z,36.22
2022-10-26T17:12:11.252Z,26.67
2022-10-26T17:14:38.639Z,24.58
2022-10-26T17:17:05.459Z,21.45
2022-10-26T17:19:32.631Z,25.95
2022-10-26T17:22:00.372Z,25.77
2022-10-26T17:24:28.879Z,21.60
2022-10-26T17:26:55.851Z,20.27
2022-10-26T17:29:23.229Z,15.80
2022-10-26T17:31:50.062Z,14.02
2022-10-26T17:34:17.531Z,14.00
2022-10-26T17:36:44.636Z,13.45
2022-10-26T17:39:12.028Z,13.13
2022-10-26T17:41:39.105Z,12.25
2022-10-26T17:44:06.482Z,13.38
2022-10-26T17:46:34.181Z,14.70
2022-10-26T17:49:01.662Z,13.07
2022-10-26T17:51:30.260Z,13.20
2022-10-26T17:53:59.001Z,16.02
2022-10-26T17:56:31.803Z,21.30
2022-10-26T17:59:01.405Z,18.98
2022-10-26T18:01:29.465Z,17.98
2022-10-26T18:03:56.798Z,19.23
2022-10-26T18:06:24.239Z,17.20
2022-10-26T18:08:51.445Z,22.48
2022-10-26T18:11:26.554Z,17.55
2022-10-26T18:13:57.778Z,18.48
2022-10-26T18:16:26.421Z,20.50
2022-10-26T18:19:02.859Z,20.83
2022-10-26T18:21:35.344Z,20.02
2022-10-26T18:24:02.481Z,22.03
2022-10-26T18:26:30.343Z,21.63
2022-10-26T18:28:59.372Z,19.73
2022-10-26T18:31:28.085Z,23.98
2022-10-26T18:34:00.186Z,24.48
2022-10-26T18:36:28.308Z,25.15
2022-10-26T18:38:56.364Z,25.60
2022-10-26T18:41:24.638Z,30.17
2022-10-26T18:43:54.428Z,25.92
2022-10-26T18:46:24.569Z,25.42
2022-10-26T18:48:52.296Z,25.88
2022-10-26T18:51:24.358Z,25.42
2022-10-26T18:53:51.723Z,24.20
2022-10-26T18:56:21.548Z,23.92
2022-10-26T18:58:50.907Z,24.35
2022-10-26T19:01:22.447Z,23.85
2022-10-26T19:03:58.366Z,22.02
2022-10-26T19:06:34.132Z,23.38
2022-10-26T19:09:01.643Z,22.88
2022-10-26T19:11:30.719Z,25.33
2022-10-26T19:13:58.108Z,24.55
2022-10-26T19:16:44.558Z,24.70
2022-10-26T19:19:14.007Z,23.67
2022-10-26T19:21:41.131Z,25.23
2022-10-26T19:24:13.553Z,24.25
2022-10-26T19:26:43.566Z,26.10
2022-10-26T19:29:15.372Z,27.13
2022-10-26T19:31:44.569Z,24.75
2022-10-26T19:34:13.023Z,25.98
2022-10-26T19:36:44.126Z,24.13
2022-10-26T19:39:11.890Z,26.13
2022-10-26T19:41:38.826Z,27.58
2022-10-26T19:44:07.842Z,30.23
2022-10-26T19:46:34.927Z,28.08
2022-10-26T19:49:03.075Z,30.42
2022-10-26T19:51:32.616Z,27.95
2022-10-26T19:54:03.932Z,30.80
2022-10-26T19:56:32.434Z,28.17
2022-10-26T19:59:00.206Z,26.00
2022-10-26T20:01:27.422Z,30.13
2022-10-26T20:03:54.850Z,27.00
2022-10-26T20:06:21.729Z,25.80
2022-10-26T20:08:49.663Z,24.75
2022-10-26T20:11:17.753Z,27.70
2022-10-26T20:13:46.278Z,26.38
2022-10-26T20:16:14.627Z,27.95
2022-10-26T20:18:45.725Z,26.17
2022-10-26T20:21:16.907Z,25.52
2022-10-26T20:23:45.230Z,24.88
2022-10-26T20:26:19.565Z,24.50
2022-10-26T20:28:53.502Z,25.00
2022-10-26T20:31:20.527Z,25.33
2022-10-26T20:33:52.726Z,21.75
2022-10-26T20:36:20.734Z,22.40
2022-10-26T20:38:48.249Z,21.73
2022-10-26T20:41:15.448Z,22.65
2022-10-26T20:43:42.944Z,20.48
2022-10-26T20:46:23.485Z,20.63
2022-10-26T20:48:51.580Z,21.30
2022-10-26T20:51:26.297Z,19.75
2022-10-26T20:54:19.862Z,18.80
2022-10-26T20:56:49.640Z,19.27
2022-10-26T20:59:28.077Z,18.23
2022-10-26T21:01:55.126Z,20.23
2022-10-26T21:04:22.326Z,18.80
2022-10-26T21:06:49.472Z,17.50
2022-10-26T21:09:16.630Z,17.52
2022-10-26T21:11:45.317Z,16.30
2022-10-26T21:14:12.478Z,17.90
2022-10-26T21:16:39.496Z,14.90
2022-10-26T21:19:08.458Z,17.85
2022-10-26T21:21:35.316Z,15.55
2022-10-26T21:24:02.834Z,16.05
2022-10-26T21:26:29.869Z,15.55
2022-10-26T21:28:57.381Z,17.17
2022-10-26T21:31:24.282Z,16.88
2022-10-26T21:33:51.350Z,17.73
2022-10-26T21:36:18.459Z,16.90
2022-10-26T21:38:45.839Z,16.65
2022-10-26T21:41:14.350Z,17.15
2022-10-26T21:43:46.058Z,19.35
2022-10-26T21:46:13.991Z,17.05
2022-10-26T21:48:41.171Z,19.80
2022-10-26T21:51:16.753Z,17.65
2022-10-26T21:53:44.473Z,18.70
2022-10-26T21:56:17.084Z,16.85
2022-10-26T21:58:44.971Z,16.15
2022-10-26T22:01:20.581Z,17.15
2022-10-26T22:03:48.842Z,16.30
2022-10-26T22:08:46.120Z,16.13
2022-10-26T22:11:16.077Z,15.65
2022-10-26T22:13:45.078Z,15.10
2022-10-26T22:16:23.782Z,13.45
2022-10-26T22:18:53.196Z,14.07
2022-10-26T22:21:21.821Z,16.25
2022-10-26T22:23:49.089Z,16.48
2022-10-26T22:26:18.875Z,17.13
2022-10-26T22:28:47.581Z,15.73
2022-10-26T22:31:17.729Z,16.58
2022-10-26T22:33:45.308Z,14.98
2022-10-26T22:36:14.342Z,15.57
2022-10-26T22:38:42.376Z,14.82
2022-10-26T22:41:10.627Z,15.52
2022-10-26T22:43:38.080Z,15.73
2022-10-26T22:46:07.756Z,12.77
2022-10-26T22:48:35.707Z,13.98
2022-10-26T22:51:07.169Z,15.40
2022-10-26T22:53:34.301Z,13.23
2022-10-26T22:56:02.171Z,13.55
2022-10-26T22:58:29.256Z,14.85
2022-10-26T23:01:06.775Z,14.73
2022-10-26T23:03:34.721Z,14.68
2022-10-26T23:06:02.003Z,19.50
2022-10-26T23:08:29.744Z,15.27
2022-10-26T23:11:01.583Z,13.40
2022-10-26T23:13:29.360Z,15.07
2022-10-26T23:15:56.998Z,15.27
2022-10-26T23:18:24.017Z,17.15
2022-10-26T23:20:51.813Z,13.90
2022-10-26T23:23:19.203Z,13.15
2022-10-26T23:25:46.227Z,16.42
2022-10-26T23:28:13.526Z,14.82
2022-10-26T23:30:40.496Z,16.00
2022-10-26T23:33:07.766Z,13.25
2022-10-26T23:35:34.680Z,13.82
2022-10-26T23:38:02.000Z,16.67
2022-10-26T23:40:28.914Z,16.30
2022-10-26T23:42:56.227Z,18.25
2022-10-26T23:45:23.569Z,17.40
2022-10-26T23:47:50.889Z,19.60
2022-10-26T23:50:18.218Z,20.13
2022-10-26T23:52:49.175Z,19.77
2022-10-26T23:55:16.644Z,20.70
2022-10-26T23:57:43.781Z,19.90
